CYXQ

Details ICAO CYXQ
Name Beaver Creek
Region Canada
Timezone America/Whitehorse (UTC-7.0)
Plans Departing 3
Arriving 7
Stats Elevation 2,129 ft / 649 m (AMSL)
Location 62.406189° -140.867203°
Runways 1
Magnetic Variation 18.915° E
Sunrise 2018-05-21 12:10:51 UTC / 2018-05-21 05:10:51 Local
Sunset 2018-05-22 06:32:11 UTC / 2018-05-21 23:32:11 Local
Advertisement - Login to hide

Runways

ID Width Length Bearing (true) Bearing (mag) Surface Threshold Offset Overrun Length
13 100 ft / 30 m 3,744 ft / 1,141 m 162.00° 143.09° Gravel 0 ft / 0 m 0 ft / 0 m
31 100 ft / 30 m 3,744 ft / 1,141 m 342.00° 323.09° Gravel 0 ft / 0 m 0 ft / 0 m

Map

Weather


0- 5 10 15 20 25 30 35+ Temperature / ° C

Clouds and Precipitation
Forecast for 2018-05-21 18:00 UTC. Updated 2 hours ago

Ground ~20,000 ft ~40,000 ft Winds

METAR

CYXQ 211900Z 06007KT 040V100 30SM SCT045 BKN150 11/M01 A2942 RMK CU3AC4 SLP982 DENSITY ALT 2800FT

TAF

Not found
Warning: Do not use this data for real-world aviation or navigation. No guarantee of current accuracy is given.